sensor_id;sensor_type;location;lat;lon;timestamp;P1;durP1;ratioP1;P2;durP2;ratioP2
75486;SDS011;65009;44.762;21.516;2022-11-09T00:00:07;63.40;;;34.40;;
75486;SDS011;65009;44.762;21.516;2022-11-09T00:02:34;60.93;;;36.23;;
75486;SDS011;65009;44.762;21.516;2022-11-09T00:05:00;63.23;;;37.07;;
75486;SDS011;65009;44.762;21.516;2022-11-09T00:07:28;70.23;;;41.50;;
75486;SDS011;65009;44.762;21.516;2022-11-09T00:09:55;73.93;;;41.87;;
75486;SDS011;65009;44.762;21.516;2022-11-09T00:12:21;72.70;;;37.23;;
75486;SDS011;65009;44.762;21.516;2022-11-09T00:14:47;62.50;;;37.07;;
75486;SDS011;65009;44.762;21.516;2022-11-09T00:17:13;64.00;;;36.87;;
75486;SDS011;65009;44.762;21.516;2022-11-09T00:19:39;70.10;;;40.57;;
75486;SDS011;65009;44.762;21.516;2022-11-09T00:22:06;80.03;;;45.50;;
75486;SDS011;65009;44.762;21.516;2022-11-09T00:24:32;69.00;;;38.97;;
75486;SDS011;65009;44.762;21.516;2022-11-09T00:26:58;72.53;;;40.83;;
75486;SDS011;65009;44.762;21.516;2022-11-09T00:29:24;100.07;;;57.13;;
75486;SDS011;65009;44.762;21.516;2022-11-09T00:31:50;106.10;;;61.50;;
75486;SDS011;65009;44.762;21.516;2022-11-09T00:34:17;88.70;;;52.17;;
75486;SDS011;65009;44.762;21.516;2022-11-09T00:36:43;81.50;;;46.90;;
75486;SDS011;65009;44.762;21.516;2022-11-09T00:39:09;83.10;;;48.13;;
75486;SDS011;65009;44.762;21.516;2022-11-09T00:41:35;87.20;;;47.27;;
75486;SDS011;65009;44.762;21.516;2022-11-09T00:44:01;74.00;;;40.87;;
75486;SDS011;65009;44.762;21.516;2022-11-09T00:46:27;70.30;;;39.37;;
75486;SDS011;65009;44.762;21.516;2022-11-09T00:48:54;78.70;;;41.37;;
75486;SDS011;65009;44.762;21.516;2022-11-09T00:51:20;80.13;;;39.30;;
75486;SDS011;65009;44.762;21.516;2022-11-09T00:53:46;91.33;;;41.23;;
75486;SDS011;65009;44.762;21.516;2022-11-09T00:56:12;86.07;;;40.83;;
75486;SDS011;65009;44.762;21.516;2022-11-09T00:58:39;89.53;;;41.40;;
75486;SDS011;65009;44.762;21.516;2022-11-09T01:01:09;93.93;;;45.03;;
75486;SDS011;65009;44.762;21.516;2022-11-09T01:03:35;108.10;;;49.27;;
75486;SDS011;65009;44.762;21.516;2022-11-09T01:06:01;125.13;;;60.27;;
75486;SDS011;65009;44.762;21.516;2022-11-09T01:08:27;121.67;;;57.50;;
75486;SDS011;65009;44.762;21.516;2022-11-09T01:10:53;125.33;;;57.00;;
75486;SDS011;65009;44.762;21.516;2022-11-09T01:13:19;121.73;;;57.13;;
75486;SDS011;65009;44.762;21.516;2022-11-09T01:15:47;175.77;;;60.10;;
75486;SDS011;65009;44.762;21.516;2022-11-09T01:18:14;114.47;;;56.30;;
75486;SDS011;65009;44.762;21.516;2022-11-09T01:20:41;111.13;;;52.60;;
75486;SDS011;65009;44.762;21.516;2022-11-09T01:23:08;102.63;;;49.67;;
75486;SDS011;65009;44.762;21.516;2022-11-09T01:25:34;95.30;;;48.47;;
75486;SDS011;65009;44.762;21.516;2022-11-09T01:28:01;92.60;;;45.73;;
75486;SDS011;65009;44.762;21.516;2022-11-09T01:30:27;120.40;;;46.90;;
75486;SDS011;65009;44.762;21.516;2022-11-09T01:32:54;89.57;;;45.60;;
75486;SDS011;65009;44.762;21.516;2022-11-09T01:35:20;104.60;;;46.47;;
75486;SDS011;65009;44.762;21.516;2022-11-09T01:37:46;101.20;;;47.57;;
75486;SDS011;65009;44.762;21.516;2022-11-09T01:40:12;100.53;;;47.90;;
75486;SDS011;65009;44.762;21.516;2022-11-09T01:42:38;108.77;;;46.60;;
75486;SDS011;65009;44.762;21.516;2022-11-09T01:47:43;118.53;;;52.37;;
75486;SDS011;65009;44.762;21.516;2022-11-09T01:50:10;178.33;;;60.57;;
75486;SDS011;65009;44.762;21.516;2022-11-09T01:52:38;134.20;;;58.73;;
75486;SDS011;65009;44.762;21.516;2022-11-09T01:55:06;131.57;;;57.70;;
75486;SDS011;65009;44.762;21.516;2022-11-09T01:57:37;164.07;;;59.97;;
75486;SDS011;65009;44.762;21.516;2022-11-09T02:00:08;132.40;;;58.87;;
75486;SDS011;65009;44.762;21.516;2022-11-09T02:02:35;174.13;;;63.50;;
75486;SDS011;65009;44.762;21.516;2022-11-09T02:05:04;332.83;;;61.30;;
75486;SDS011;65009;44.762;21.516;2022-11-09T02:07:31;248.90;;;58.20;;
75486;SDS011;65009;44.762;21.516;2022-11-09T02:10:03;316.40;;;48.87;;
75486;SDS011;65009;44.762;21.516;2022-11-09T02:12:30;141.90;;;52.53;;
75486;SDS011;65009;44.762;21.516;2022-11-09T02:14:57;237.07;;;66.37;;
75486;SDS011;65009;44.762;21.516;2022-11-09T02:17:24;311.17;;;63.73;;
75486;SDS011;65009;44.762;21.516;2022-11-09T02:19:51;158.80;;;65.67;;
75486;SDS011;65009;44.762;21.516;2022-11-09T02:22:17;133.47;;;50.23;;
75486;SDS011;65009;44.762;21.516;2022-11-09T02:24:43;154.13;;;47.37;;
75486;SDS011;65009;44.762;21.516;2022-11-09T02:27:10;149.50;;;44.10;;
75486;SDS011;65009;44.762;21.516;2022-11-09T02:29:37;91.43;;;37.50;;
75486;SDS011;65009;44.762;21.516;2022-11-09T02:32:23;77.33;;;39.40;;
75486;SDS011;65009;44.762;21.516;2022-11-09T02:34:50;76.47;;;33.90;;
75486;SDS011;65009;44.762;21.516;2022-11-09T02:37:23;70.60;;;32.73;;
75486;SDS011;65009;44.762;21.516;2022-11-09T02:39:49;63.50;;;32.80;;
75486;SDS011;65009;44.762;21.516;2022-11-09T02:42:16;53.60;;;28.20;;
75486;SDS011;65009;44.762;21.516;2022-11-09T02:44:43;49.97;;;27.50;;
75486;SDS011;65009;44.762;21.516;2022-11-09T02:47:10;52.47;;;26.30;;
75486;SDS011;65009;44.762;21.516;2022-11-09T02:49:36;56.57;;;28.20;;
75486;SDS011;65009;44.762;21.516;2022-11-09T02:52:02;52.73;;;28.40;;
75486;SDS011;65009;44.762;21.516;2022-11-09T02:54:29;87.27;;;29.43;;
75486;SDS011;65009;44.762;21.516;2022-11-09T02:56:55;62.87;;;28.60;;
75486;SDS011;65009;44.762;21.516;2022-11-09T02:59:21;57.70;;;28.80;;
75486;SDS011;65009;44.762;21.516;2022-11-09T03:01:47;56.10;;;28.33;;
75486;SDS011;65009;44.762;21.516;2022-11-09T03:04:13;45.30;;;24.93;;
75486;SDS011;65009;44.762;21.516;2022-11-09T03:06:39;50.13;;;26.13;;
75486;SDS011;65009;44.762;21.516;2022-11-09T03:09:07;44.67;;;25.00;;
75486;SDS011;65009;44.762;21.516;2022-11-09T03:11:37;40.87;;;23.90;;
75486;SDS011;65009;44.762;21.516;2022-11-09T03:14:04;44.03;;;23.53;;
75486;SDS011;65009;44.762;21.516;2022-11-09T03:16:30;42.63;;;24.43;;
75486;SDS011;65009;44.762;21.516;2022-11-09T03:18:56;40.97;;;22.43;;
75486;SDS011;65009;44.762;21.516;2022-11-09T03:21:23;40.70;;;23.30;;
75486;SDS011;65009;44.762;21.516;2022-11-09T03:23:49;39.53;;;22.47;;
75486;SDS011;65009;44.762;21.516;2022-11-09T03:26:15;41.13;;;23.93;;
75486;SDS011;65009;44.762;21.516;2022-11-09T03:28:42;37.37;;;22.63;;
75486;SDS011;65009;44.762;21.516;2022-11-09T03:31:08;37.63;;;21.77;;
75486;SDS011;65009;44.762;21.516;2022-11-09T03:33:34;47.43;;;23.13;;
75486;SDS011;65009;44.762;21.516;2022-11-09T03:36:00;41.33;;;23.37;;
75486;SDS011;65009;44.762;21.516;2022-11-09T03:38:26;46.00;;;24.53;;
75486;SDS011;65009;44.762;21.516;2022-11-09T03:40:53;41.03;;;24.40;;
75486;SDS011;65009;44.762;21.516;2022-11-09T03:43:19;39.37;;;23.43;;
75486;SDS011;65009;44.762;21.516;2022-11-09T03:45:45;41.67;;;23.30;;
75486;SDS011;65009;44.762;21.516;2022-11-09T03:48:12;36.07;;;21.30;;
75486;SDS011;65009;44.762;21.516;2022-11-09T03:50:38;33.33;;;20.83;;
75486;SDS011;65009;44.762;21.516;2022-11-09T03:53:05;34.87;;;21.50;;
75486;SDS011;65009;44.762;21.516;2022-11-09T03:55:32;39.40;;;22.27;;
75486;SDS011;65009;44.762;21.516;2022-11-09T03:57:58;45.13;;;24.60;;
75486;SDS011;65009;44.762;21.516;2022-11-09T04:00:24;46.03;;;26.20;;
75486;SDS011;65009;44.762;21.516;2022-11-09T04:02:50;44.17;;;24.50;;
75486;SDS011;65009;44.762;21.516;2022-11-09T04:05:16;42.33;;;23.27;;
75486;SDS011;65009;44.762;21.516;2022-11-09T04:07:46;38.50;;;22.50;;
75486;SDS011;65009;44.762;21.516;2022-11-09T04:10:12;38.43;;;22.80;;
75486;SDS011;65009;44.762;21.516;2022-11-09T04:12:39;39.63;;;22.63;;
75486;SDS011;65009;44.762;21.516;2022-11-09T04:15:05;38.67;;;21.53;;
75486;SDS011;65009;44.762;21.516;2022-11-09T04:17:31;39.57;;;22.17;;
75486;SDS011;65009;44.762;21.516;2022-11-09T04:19:57;37.20;;;20.53;;
75486;SDS011;65009;44.762;21.516;2022-11-09T04:22:23;31.13;;;20.13;;
75486;SDS011;65009;44.762;21.516;2022-11-09T04:24:49;34.23;;;20.83;;
75486;SDS011;65009;44.762;21.516;2022-11-09T04:27:15;33.60;;;19.37;;
75486;SDS011;65009;44.762;21.516;2022-11-09T04:29:41;34.40;;;20.03;;
75486;SDS011;65009;44.762;21.516;2022-11-09T04:32:08;36.17;;;21.63;;
75486;SDS011;65009;44.762;21.516;2022-11-09T04:34:34;33.13;;;21.83;;
75486;SDS011;65009;44.762;21.516;2022-11-09T04:37:00;36.53;;;22.83;;
75486;SDS011;65009;44.762;21.516;2022-11-09T04:39:26;44.30;;;23.90;;
75486;SDS011;65009;44.762;21.516;2022-11-09T04:41:52;44.30;;;25.57;;
75486;SDS011;65009;44.762;21.516;2022-11-09T04:44:18;47.07;;;26.67;;
75486;SDS011;65009;44.762;21.516;2022-11-09T04:46:44;44.53;;;25.57;;
75486;SDS011;65009;44.762;21.516;2022-11-09T04:49:10;44.10;;;25.10;;
75486;SDS011;65009;44.762;21.516;2022-11-09T04:51:37;43.80;;;25.97;;
75486;SDS011;65009;44.762;21.516;2022-11-09T04:54:03;50.90;;;29.43;;
75486;SDS011;65009;44.762;21.516;2022-11-09T04:56:29;49.60;;;28.63;;
75486;SDS011;65009;44.762;21.516;2022-11-09T04:58:55;51.90;;;28.57;;
75486;SDS011;65009;44.762;21.516;2022-11-09T05:01:21;51.47;;;28.03;;
75486;SDS011;65009;44.762;21.516;2022-11-09T05:03:47;51.30;;;27.27;;
75486;SDS011;65009;44.762;21.516;2022-11-09T05:06:13;55.40;;;30.60;;
75486;SDS011;65009;44.762;21.516;2022-11-09T05:09:05;52.80;;;28.53;;
75486;SDS011;65009;44.762;21.516;2022-11-09T05:11:32;56.00;;;32.43;;
75486;SDS011;65009;44.762;21.516;2022-11-09T05:13:58;70.23;;;40.80;;
75486;SDS011;65009;44.762;21.516;2022-11-09T05:16:25;69.13;;;39.17;;
75486;SDS011;65009;44.762;21.516;2022-11-09T05:18:51;58.97;;;35.37;;
75486;SDS011;65009;44.762;21.516;2022-11-09T05:21:17;57.73;;;33.20;;
75486;SDS011;65009;44.762;21.516;2022-11-09T05:23:43;63.70;;;37.30;;
75486;SDS011;65009;44.762;21.516;2022-11-09T05:26:32;69.70;;;38.83;;
75486;SDS011;65009;44.762;21.516;2022-11-09T05:28:59;59.07;;;35.47;;
75486;SDS011;65009;44.762;21.516;2022-11-09T05:31:25;95.03;;;56.50;;
75486;SDS011;65009;44.762;21.516;2022-11-09T05:33:52;75.23;;;47.33;;
75486;SDS011;65009;44.762;21.516;2022-11-09T05:36:19;63.63;;;40.17;;
75486;SDS011;65009;44.762;21.516;2022-11-09T05:38:45;71.27;;;41.47;;
75486;SDS011;65009;44.762;21.516;2022-11-09T05:41:11;68.53;;;41.63;;
75486;SDS011;65009;44.762;21.516;2022-11-09T05:43:38;62.37;;;37.03;;
75486;SDS011;65009;44.762;21.516;2022-11-09T05:46:04;57.23;;;32.30;;
75486;SDS011;65009;44.762;21.516;2022-11-09T05:48:31;55.37;;;31.90;;
75486;SDS011;65009;44.762;21.516;2022-11-09T05:51:00;57.53;;;34.00;;
75486;SDS011;65009;44.762;21.516;2022-11-09T05:53:27;60.33;;;36.70;;
75486;SDS011;65009;44.762;21.516;2022-11-09T05:55:53;61.33;;;36.20;;
75486;SDS011;65009;44.762;21.516;2022-11-09T05:58:19;60.67;;;36.30;;
75486;SDS011;65009;44.762;21.516;2022-11-09T06:00:45;60.07;;;38.40;;
75486;SDS011;65009;44.762;21.516;2022-11-09T06:03:11;58.13;;;38.20;;
75486;SDS011;65009;44.762;21.516;2022-11-09T06:05:38;69.70;;;41.70;;
75486;SDS011;65009;44.762;21.516;2022-11-09T06:08:05;77.67;;;48.03;;
75486;SDS011;65009;44.762;21.516;2022-11-09T06:10:32;70.50;;;42.40;;
75486;SDS011;65009;44.762;21.516;2022-11-09T06:12:58;72.00;;;41.60;;
75486;SDS011;65009;44.762;21.516;2022-11-09T06:15:24;60.40;;;37.40;;
75486;SDS011;65009;44.762;21.516;2022-11-09T06:17:51;59.17;;;37.10;;
75486;SDS011;65009;44.762;21.516;2022-11-09T06:20:17;63.70;;;41.73;;
75486;SDS011;65009;44.762;21.516;2022-11-09T06:22:43;57.30;;;37.10;;
75486;SDS011;65009;44.762;21.516;2022-11-09T06:25:09;53.07;;;34.87;;
75486;SDS011;65009;44.762;21.516;2022-11-09T06:27:35;50.90;;;32.43;;
75486;SDS011;65009;44.762;21.516;2022-11-09T06:30:02;48.20;;;32.40;;
75486;SDS011;65009;44.762;21.516;2022-11-09T06:32:28;49.55;;;31.58;;
75486;SDS011;65009;44.762;21.516;2022-11-09T06:34:54;45.72;;;29.25;;
75486;SDS011;65009;44.762;21.516;2022-11-09T06:37:20;50.03;;;31.10;;
75486;SDS011;65009;44.762;21.516;2022-11-09T06:39:46;50.38;;;32.78;;
75486;SDS011;65009;44.762;21.516;2022-11-09T06:42:12;63.83;;;36.72;;
75486;SDS011;65009;44.762;21.516;2022-11-09T06:44:38;61.08;;;37.88;;
75486;SDS011;65009;44.762;21.516;2022-11-09T06:47:04;51.85;;;35.28;;
75486;SDS011;65009;44.762;21.516;2022-11-09T06:49:30;53.22;;;31.45;;
75486;SDS011;65009;44.762;21.516;2022-11-09T06:51:57;49.45;;;25.60;;
75486;SDS011;65009;44.762;21.516;2022-11-09T06:54:23;42.38;;;27.75;;
75486;SDS011;65009;44.762;21.516;2022-11-09T06:56:49;38.45;;;25.27;;
75486;SDS011;65009;44.762;21.516;2022-11-09T06:59:15;48.42;;;26.00;;
75486;SDS011;65009;44.762;21.516;2022-11-09T07:01:41;31.98;;;21.38;;
75486;SDS011;65009;44.762;21.516;2022-11-09T07:04:07;30.02;;;19.33;;
75486;SDS011;65009;44.762;21.516;2022-11-09T07:06:38;26.48;;;18.83;;
75486;SDS011;65009;44.762;21.516;2022-11-09T07:09:04;29.83;;;19.73;;
75486;SDS011;65009;44.762;21.516;2022-11-09T07:11:30;28.55;;;18.95;;
75486;SDS011;65009;44.762;21.516;2022-11-09T07:13:56;25.60;;;16.80;;
75486;SDS011;65009;44.762;21.516;2022-11-09T07:16:22;29.75;;;18.95;;
75486;SDS011;65009;44.762;21.516;2022-11-09T07:18:48;29.70;;;20.08;;
75486;SDS011;65009;44.762;21.516;2022-11-09T07:21:15;32.95;;;21.75;;
75486;SDS011;65009;44.762;21.516;2022-11-09T07:23:41;32.80;;;21.23;;
75486;SDS011;65009;44.762;21.516;2022-11-09T07:26:07;28.45;;;20.55;;
75486;SDS011;65009;44.762;21.516;2022-11-09T07:28:34;27.40;;;19.67;;
75486;SDS011;65009;44.762;21.516;2022-11-09T07:31:00;27.17;;;17.80;;
75486;SDS011;65009;44.762;21.516;2022-11-09T07:33:26;27.30;;;19.42;;
75486;SDS011;65009;44.762;21.516;2022-11-09T07:35:56;30.65;;;19.55;;
75486;SDS011;65009;44.762;21.516;2022-11-09T07:38:22;31.63;;;19.73;;
75486;SDS011;65009;44.762;21.516;2022-11-09T07:40:48;30.48;;;20.23;;
75486;SDS011;65009;44.762;21.516;2022-11-09T07:43:14;34.50;;;20.88;;
75486;SDS011;65009;44.762;21.516;2022-11-09T07:45:41;36.30;;;21.55;;
75486;SDS011;65009;44.762;21.516;2022-11-09T07:48:08;39.22;;;22.88;;
75486;SDS011;65009;44.762;21.516;2022-11-09T07:50:35;34.28;;;23.80;;
75486;SDS011;65009;44.762;21.516;2022-11-09T07:53:01;41.40;;;28.30;;
75486;SDS011;65009;44.762;21.516;2022-11-09T07:55:28;39.40;;;24.95;;
75486;SDS011;65009;44.762;21.516;2022-11-09T07:57:58;37.97;;;23.98;;
75486;SDS011;65009;44.762;21.516;2022-11-09T08:00:25;38.17;;;23.90;;
75486;SDS011;65009;44.762;21.516;2022-11-09T08:02:52;36.13;;;22.92;;
75486;SDS011;65009;44.762;21.516;2022-11-09T08:05:18;36.60;;;26.63;;
75486;SDS011;65009;44.762;21.516;2022-11-09T08:07:44;41.60;;;25.10;;
75486;SDS011;65009;44.762;21.516;2022-11-09T08:10:11;43.00;;;25.63;;
75486;SDS011;65009;44.762;21.516;2022-11-09T08:12:37;44.35;;;25.85;;
75486;SDS011;65009;44.762;21.516;2022-11-09T08:15:04;45.45;;;26.70;;
75486;SDS011;65009;44.762;21.516;2022-11-09T08:17:31;35.20;;;23.95;;
75486;SDS011;65009;44.762;21.516;2022-11-09T08:19:57;32.42;;;21.88;;
75486;SDS011;65009;44.762;21.516;2022-11-09T08:22:23;34.17;;;21.95;;
75486;SDS011;65009;44.762;21.516;2022-11-09T08:24:49;29.45;;;20.65;;
75486;SDS011;65009;44.762;21.516;2022-11-09T08:27:16;32.70;;;21.83;;
75486;SDS011;65009;44.762;21.516;2022-11-09T08:29:42;27.23;;;20.00;;
75486;SDS011;65009;44.762;21.516;2022-11-09T08:32:08;38.22;;;24.23;;
75486;SDS011;65009;44.762;21.516;2022-11-09T08:34:34;35.00;;;21.85;;
75486;SDS011;65009;44.762;21.516;2022-11-09T08:37:01;29.92;;;19.92;;
75486;SDS011;65009;44.762;21.516;2022-11-09T08:39:27;28.33;;;20.05;;
75486;SDS011;65009;44.762;21.516;2022-11-09T08:41:53;27.10;;;20.40;;
75486;SDS011;65009;44.762;21.516;2022-11-09T08:44:19;35.53;;;22.95;;
75486;SDS011;65009;44.762;21.516;2022-11-09T08:46:46;35.22;;;22.75;;
75486;SDS011;65009;44.762;21.516;2022-11-09T08:49:12;43.92;;;27.55;;
75486;SDS011;65009;44.762;21.516;2022-11-09T08:51:40;39.17;;;24.95;;
75486;SDS011;65009;44.762;21.516;2022-11-09T08:54:06;39.25;;;23.70;;
75486;SDS011;65009;44.762;21.516;2022-11-09T08:56:33;30.67;;;21.33;;
75486;SDS011;65009;44.762;21.516;2022-11-09T08:58:59;37.13;;;23.42;;
75486;SDS011;65009;44.762;21.516;2022-11-09T09:01:25;32.22;;;22.83;;
75486;SDS011;65009;44.762;21.516;2022-11-09T09:03:51;41.22;;;24.98;;
75486;SDS011;65009;44.762;21.516;2022-11-09T09:06:17;43.25;;;27.67;;
75486;SDS011;65009;44.762;21.516;2022-11-09T09:08:43;59.22;;;31.02;;
75486;SDS011;65009;44.762;21.516;2022-11-09T09:11:10;46.00;;;25.05;;
75486;SDS011;65009;44.762;21.516;2022-11-09T09:13:36;54.45;;;29.25;;
75486;SDS011;65009;44.762;21.516;2022-11-09T09:16:12;35.45;;;22.73;;
75486;SDS011;65009;44.762;21.516;2022-11-09T09:18:39;42.78;;;24.98;;
75486;SDS011;65009;44.762;21.516;2022-11-09T09:21:08;44.15;;;23.33;;
75486;SDS011;65009;44.762;21.516;2022-11-09T09:23:35;36.22;;;21.98;;
75486;SDS011;65009;44.762;21.516;2022-11-09T09:26:01;28.52;;;19.20;;
75486;SDS011;65009;44.762;21.516;2022-11-09T09:28:28;25.00;;;18.17;;
75486;SDS011;65009;44.762;21.516;2022-11-09T09:30:56;31.13;;;21.40;;
75486;SDS011;65009;44.762;21.516;2022-11-09T09:33:23;39.85;;;24.08;;
75486;SDS011;65009;44.762;21.516;2022-11-09T09:35:50;36.63;;;22.55;;
75486;SDS011;65009;44.762;21.516;2022-11-09T09:38:16;32.20;;;21.35;;
75486;SDS011;65009;44.762;21.516;2022-11-09T09:40:47;27.25;;;19.95;;
75486;SDS011;65009;44.762;21.516;2022-11-09T09:43:20;31.10;;;21.58;;
75486;SDS011;65009;44.762;21.516;2022-11-09T09:45:49;29.77;;;20.50;;
75486;SDS011;65009;44.762;21.516;2022-11-09T09:48:28;38.63;;;24.63;;
75486;SDS011;65009;44.762;21.516;2022-11-09T09:50:57;33.78;;;21.50;;
75486;SDS011;65009;44.762;21.516;2022-11-09T09:53:31;31.05;;;21.33;;
75486;SDS011;65009;44.762;21.516;2022-11-09T09:56:18;32.47;;;22.08;;
75486;SDS011;65009;44.762;21.516;2022-11-09T09:58:48;26.00;;;20.27;;
75486;SDS011;65009;44.762;21.516;2022-11-09T10:01:17;36.42;;;23.75;;
75486;SDS011;65009;44.762;21.516;2022-11-09T10:03:44;30.45;;;21.33;;
75486;SDS011;65009;44.762;21.516;2022-11-09T10:21:40;25.17;;;19.70;;
75486;SDS011;65009;44.762;21.516;2022-11-09T10:24:19;27.95;;;18.08;;
75486;SDS011;65009;44.762;21.516;2022-11-09T10:26:51;27.80;;;20.48;;
75486;SDS011;65009;44.762;21.516;2022-11-09T10:29:23;33.17;;;22.05;;
75486;SDS011;65009;44.762;21.516;2022-11-09T10:31:54;32.05;;;20.33;;
75486;SDS011;65009;44.762;21.516;2022-11-09T10:34:23;37.35;;;21.02;;
75486;SDS011;65009;44.762;21.516;2022-11-09T10:39:54;21.75;;;16.80;;
75486;SDS011;65009;44.762;21.516;2022-11-09T10:42:21;21.70;;;17.30;;
75486;SDS011;65009;44.762;21.516;2022-11-09T10:44:47;22.98;;;17.08;;
75486;SDS011;65009;44.762;21.516;2022-11-09T10:47:14;19.52;;;16.33;;
75486;SDS011;65009;44.762;21.516;2022-11-09T10:49:41;25.05;;;15.75;;
75486;SDS011;65009;44.762;21.516;2022-11-09T10:52:54;19.42;;;15.38;;
75486;SDS011;65009;44.762;21.516;2022-11-09T10:54:54;16.90;;;15.15;;
75486;SDS011;65009;44.762;21.516;2022-11-09T10:57:48;18.20;;;14.85;;
75486;SDS011;65009;44.762;21.516;2022-11-09T11:00:16;23.95;;;16.38;;
75486;SDS011;65009;44.762;21.516;2022-11-09T11:02:44;19.00;;;15.77;;
75486;SDS011;65009;44.762;21.516;2022-11-09T11:07:44;22.85;;;17.13;;
75486;SDS011;65009;44.762;21.516;2022-11-09T11:10:16;23.50;;;19.65;;
75486;SDS011;65009;44.762;21.516;2022-11-09T11:13:28;34.97;;;28.88;;
75486;SDS011;65009;44.762;21.516;2022-11-09T11:15:38;28.40;;;21.75;;
75486;SDS011;65009;44.762;21.516;2022-11-09T11:18:22;20.83;;;16.50;;
75486;SDS011;65009;44.762;21.516;2022-11-09T11:21:33;21.77;;;17.23;;
75486;SDS011;65009;44.762;21.516;2022-11-09T11:23:35;23.17;;;18.13;;
75486;SDS011;65009;44.762;21.516;2022-11-09T11:28:49;26.13;;;20.58;;
75486;SDS011;65009;44.762;21.516;2022-11-09T11:31:17;30.95;;;22.25;;
75486;SDS011;65009;44.762;21.516;2022-11-09T11:33:43;31.27;;;22.00;;
75486;SDS011;65009;44.762;21.516;2022-11-09T11:38:46;16.13;;;14.43;;
75486;SDS011;65009;44.762;21.516;2022-11-09T11:44:29;17.67;;;14.18;;
75486;SDS011;65009;44.762;21.516;2022-11-09T11:52:31;19.00;;;16.52;;
75486;SDS011;65009;44.762;21.516;2022-11-09T12:10:51;20.13;;;18.02;;
75486;SDS011;65009;44.762;21.516;2022-11-09T12:15:58;20.05;;;16.05;;
75486;SDS011;65009;44.762;21.516;2022-11-09T12:21:16;20.05;;;16.60;;
75486;SDS011;65009;44.762;21.516;2022-11-09T12:23:45;19.15;;;16.80;;
75486;SDS011;65009;44.762;21.516;2022-11-09T12:28:53;18.60;;;15.50;;
75486;SDS011;65009;44.762;21.516;2022-11-09T12:42:03;22.65;;;19.10;;
75486;SDS011;65009;44.762;21.516;2022-11-09T12:44:32;21.15;;;16.77;;
75486;SDS011;65009;44.762;21.516;2022-11-09T12:47:01;19.13;;;16.90;;
75486;SDS011;65009;44.762;21.516;2022-11-09T12:51:56;22.40;;;20.20;;
75486;SDS011;65009;44.762;21.516;2022-11-09T12:54:23;18.85;;;15.35;;
75486;SDS011;65009;44.762;21.516;2022-11-09T12:56:51;17.48;;;15.68;;
75486;SDS011;65009;44.762;21.516;2022-11-09T12:59:20;17.55;;;15.35;;
75486;SDS011;65009;44.762;21.516;2022-11-09T13:01:51;18.52;;;15.35;;
75486;SDS011;65009;44.762;21.516;2022-11-09T13:04:19;22.73;;;17.88;;
75486;SDS011;65009;44.762;21.516;2022-11-09T13:09:30;17.45;;;15.55;;
75486;SDS011;65009;44.762;21.516;2022-11-09T13:11:56;25.08;;;18.50;;
75486;SDS011;65009;44.762;21.516;2022-11-09T13:16:54;34.10;;;20.33;;
75486;SDS011;65009;44.762;21.516;2022-11-09T13:21:59;24.25;;;17.27;;
75486;SDS011;65009;44.762;21.516;2022-11-09T13:25:31;30.13;;;18.95;;
75486;SDS011;65009;44.762;21.516;2022-11-09T13:27:32;19.83;;;16.25;;
75486;SDS011;65009;44.762;21.516;2022-11-09T13:29:59;23.92;;;16.65;;
75486;SDS011;65009;44.762;21.516;2022-11-09T13:32:26;24.33;;;18.50;;
75486;SDS011;65009;44.762;21.516;2022-11-09T13:34:55;20.88;;;16.25;;
75486;SDS011;65009;44.762;21.516;2022-11-09T13:37:33;20.73;;;16.30;;
75486;SDS011;65009;44.762;21.516;2022-11-09T13:40:00;25.10;;;19.38;;
75486;SDS011;65009;44.762;21.516;2022-11-09T13:42:27;24.98;;;19.67;;
75486;SDS011;65009;44.762;21.516;2022-11-09T13:45:14;28.77;;;20.10;;
75486;SDS011;65009;44.762;21.516;2022-11-09T13:47:40;24.08;;;18.05;;
75486;SDS011;65009;44.762;21.516;2022-11-09T13:50:18;32.15;;;20.88;;
75486;SDS011;65009;44.762;21.516;2022-11-09T13:52:48;53.53;;;33.33;;
75486;SDS011;65009;44.762;21.516;2022-11-09T13:55:28;36.75;;;24.20;;
75486;SDS011;65009;44.762;21.516;2022-11-09T13:57:55;41.42;;;26.60;;
75486;SDS011;65009;44.762;21.516;2022-11-09T14:00:23;34.55;;;24.02;;
75486;SDS011;65009;44.762;21.516;2022-11-09T14:02:59;42.67;;;26.63;;
75486;SDS011;65009;44.762;21.516;2022-11-09T14:05:33;30.00;;;21.50;;
75486;SDS011;65009;44.762;21.516;2022-11-09T14:08:02;27.23;;;18.08;;
75486;SDS011;65009;44.762;21.516;2022-11-09T14:18:10;23.60;;;16.02;;
75486;SDS011;65009;44.762;21.516;2022-11-09T14:23:19;25.15;;;17.20;;
75486;SDS011;65009;44.762;21.516;2022-11-09T14:25:47;34.30;;;21.45;;
75486;SDS011;65009;44.762;21.516;2022-11-09T14:28:20;27.75;;;19.85;;
75486;SDS011;65009;44.762;21.516;2022-11-09T14:30:47;34.15;;;22.10;;
75486;SDS011;65009;44.762;21.516;2022-11-09T14:33:14;28.80;;;20.42;;
75486;SDS011;65009;44.762;21.516;2022-11-09T14:35:43;30.30;;;21.55;;
75486;SDS011;65009;44.762;21.516;2022-11-09T14:40:45;22.52;;;17.63;;
75486;SDS011;65009;44.762;21.516;2022-11-09T14:43:28;35.67;;;23.58;;
75486;SDS011;65009;44.762;21.516;2022-11-09T14:45:59;29.40;;;19.83;;
75486;SDS011;65009;44.762;21.516;2022-11-09T14:48:26;29.58;;;20.58;;
75486;SDS011;65009;44.762;21.516;2022-11-09T14:50:54;34.15;;;22.88;;
75486;SDS011;65009;44.762;21.516;2022-11-09T14:53:22;38.28;;;24.30;;
75486;SDS011;65009;44.762;21.516;2022-11-09T14:55:50;43.47;;;27.75;;
75486;SDS011;65009;44.762;21.516;2022-11-09T14:58:17;34.30;;;23.75;;
75486;SDS011;65009;44.762;21.516;2022-11-09T15:00:43;47.80;;;28.70;;
75486;SDS011;65009;44.762;21.516;2022-11-09T15:03:22;41.58;;;27.13;;
75486;SDS011;65009;44.762;21.516;2022-11-09T15:05:49;26.85;;;19.00;;
75486;SDS011;65009;44.762;21.516;2022-11-09T15:08:26;27.67;;;18.67;;
75486;SDS011;65009;44.762;21.516;2022-11-09T15:10:54;28.98;;;19.45;;
75486;SDS011;65009;44.762;21.516;2022-11-09T15:15:55;44.22;;;26.58;;
75486;SDS011;65009;44.762;21.516;2022-11-09T15:18:23;37.15;;;22.63;;
75486;SDS011;65009;44.762;21.516;2022-11-09T15:21:38;34.20;;;21.50;;
75486;SDS011;65009;44.762;21.516;2022-11-09T15:23:41;29.00;;;20.33;;
75486;SDS011;65009;44.762;21.516;2022-11-09T15:28:52;64.47;;;35.42;;
75486;SDS011;65009;44.762;21.516;2022-11-09T15:31:18;71.25;;;37.15;;
75486;SDS011;65009;44.762;21.516;2022-11-09T15:33:48;50.08;;;29.13;;
75486;SDS011;65009;44.762;21.516;2022-11-09T15:38:58;56.75;;;30.02;;
75486;SDS011;65009;44.762;21.516;2022-11-09T15:41:24;73.43;;;37.63;;
75486;SDS011;65009;44.762;21.516;2022-11-09T15:43:51;61.35;;;34.45;;
75486;SDS011;65009;44.762;21.516;2022-11-09T15:46:18;43.47;;;27.08;;
75486;SDS011;65009;44.762;21.516;2022-11-09T15:48:45;49.38;;;29.98;;
75486;SDS011;65009;44.762;21.516;2022-11-09T15:51:11;53.22;;;32.35;;
75486;SDS011;65009;44.762;21.516;2022-11-09T15:53:37;47.67;;;28.13;;
75486;SDS011;65009;44.762;21.516;2022-11-09T15:56:04;51.15;;;29.65;;